CEB276 RPLL-RPVE
Flight info
| Callsign | CEB276 |
|---|---|
| Flight time | 0h 33m |
| Altitude | 25000 |
| Route | VERDE2V VERDE W24 TAPER TAPER7A |
| Aircraft | A20N/M-SDE2E3FGHIRWXY/LB1 |
Departure
| Time | 2026-04-21 10:31 |
|---|---|
| Airport | Ninoy Aquino International Airport (RPLL) |
Arrival
| Time | 2026-04-21 11:04 |
|---|---|
| Airport | Godofredo P. Ramos Airport (RPVE) |
| Time | Latitude | Longitude | Altitude | Speed | Heading |
|---|---|---|---|---|---|
| 2026-04-21 09:57 | 14.51702 | 121.01658 | 72 ft | 0 kts | 226° |
| 2026-04-21 10:11 | 14.51703 | 121.01658 | 72 ft | 2 kts | 226° |
| 2026-04-21 10:11 | 14.51714 | 121.01670 | 72 ft | 2 kts | 226° |
| 2026-04-21 10:11 | 14.51725 | 121.01682 | 72 ft | 2 kts | 226° |
| 2026-04-21 10:12 | 14.51737 | 121.01694 | 72 ft | 2 kts | 226° |
| 2026-04-21 10:12 | 14.51749 | 121.01705 | 72 ft | 2 kts | 241° |
| 2026-04-21 10:12 | 14.51762 | 121.01711 | 72 ft | 2 kts | 143° |
| 2026-04-21 10:12 | 14.51765 | 121.01708 | 72 ft | 0 kts | 141° |
| 2026-04-21 10:21 | 14.51758 | 121.01714 | 72 ft | 5 kts | 139° |
| 2026-04-21 10:21 | 14.51710 | 121.01763 | 72 ft | 13 kts | 135° |
| 2026-04-21 10:21 | 14.51641 | 121.01784 | 72 ft | 10 kts | 199° |
| 2026-04-21 10:22 | 14.51581 | 121.01732 | 72 ft | 12 kts | 225° |
| 2026-04-21 10:22 | 14.51513 | 121.01661 | 72 ft | 16 kts | 224° |
| 2026-04-21 10:22 | 14.51453 | 121.01595 | 72 ft | 2 kts | 261° |
| 2026-04-21 10:22 | 14.51459 | 121.01584 | 72 ft | 2 kts | 310° |
| 2026-04-21 10:23 | 14.51473 | 121.01571 | 72 ft | 4 kts | 317° |
| 2026-04-21 10:23 | 14.51502 | 121.01542 | 72 ft | 8 kts | 315° |
| 2026-04-21 10:23 | 14.51547 | 121.01495 | 72 ft | 11 kts | 314° |
| 2026-04-21 10:23 | 14.51608 | 121.01433 | 72 ft | 13 kts | 315° |
| 2026-04-21 10:24 | 14.51677 | 121.01361 | 72 ft | 15 kts | 315° |
| 2026-04-21 10:24 | 14.51761 | 121.01275 | 72 ft | 19 kts | 315° |
| 2026-04-21 10:24 | 14.51854 | 121.01179 | 72 ft | 19 kts | 315° |
| 2026-04-21 10:24 | 14.51953 | 121.01078 | 72 ft | 21 kts | 315° |
| 2026-04-21 10:25 | 14.52062 | 121.00965 | 72 ft | 23 kts | 314° |
| 2026-04-21 10:25 | 14.52172 | 121.00851 | 72 ft | 19 kts | 315° |
| 2026-04-21 10:25 | 14.52271 | 121.00749 | 72 ft | 21 kts | 315° |
| 2026-04-21 10:25 | 14.52366 | 121.00652 | 72 ft | 14 kts | 315° |
| 2026-04-21 10:26 | 14.52432 | 121.00583 | 72 ft | 15 kts | 315° |
| 2026-04-21 10:26 | 14.52493 | 121.00518 | 72 ft | 6 kts | 298° |
| 2026-04-21 10:26 | 14.52482 | 121.00490 | 72 ft | 5 kts | 228° |
| 2026-04-21 10:26 | 14.52454 | 121.00459 | 72 ft | 7 kts | 227° |
| 2026-04-21 10:27 | 14.52432 | 121.00435 | 72 ft | 0 kts | 226° |
| 2026-04-21 10:29 | 14.52414 | 121.00415 | 72 ft | 9 kts | 226° |
| 2026-04-21 10:29 | 14.52368 | 121.00392 | 71 ft | 4 kts | 143° |
| 2026-04-21 10:29 | 14.52326 | 121.00440 | 71 ft | 9 kts | 134° |
| 2026-04-21 10:30 | 14.52324 | 121.00442 | 71 ft | 0 kts | 134° |
| 2026-04-21 10:30 | 14.52239 | 121.00532 | 71 ft | 56 kts | 135° |
| 2026-04-21 10:30 | 14.51746 | 121.01039 | 93 ft | 138 kts | 135° |
| 2026-04-21 10:30 | 14.50970 | 121.01841 | 435 ft | 177 kts | 136° |
| 2026-04-21 10:31 | 14.49977 | 121.02839 | 949 ft | 221 kts | 137° |
| 2026-04-21 10:31 | 14.48814 | 121.04021 | 1774 ft | 236 kts | 135° |
| 2026-04-21 10:31 | 14.47618 | 121.05272 | 2568 ft | 254 kts | 135° |
| 2026-04-21 10:31 | 14.46349 | 121.06599 | 3086 ft | 266 kts | 135° |
| 2026-04-21 10:32 | 14.44998 | 121.07998 | 3862 ft | 282 kts | 137° |
| 2026-04-21 10:32 | 14.43401 | 121.09125 | 5256 ft | 276 kts | 158° |
| 2026-04-21 10:32 | 14.41558 | 121.09418 | 6589 ft | 274 kts | 184° |
| 2026-04-21 10:32 | 14.39646 | 121.09085 | 7761 ft | 278 kts | 193° |
| 2026-04-21 10:33 | 14.37772 | 121.08611 | 8822 ft | 283 kts | 194° |
| 2026-04-21 10:33 | 14.35819 | 121.08103 | 9853 ft | 289 kts | 194° |
| 2026-04-21 10:33 | 14.34514 | 121.07768 | 10469 ft | 295 kts | 194° |
| 2026-04-21 10:33 | 14.32444 | 121.07246 | 10944 ft | 318 kts | 194° |
| 2026-04-21 10:34 | 14.29489 | 121.06492 | 11628 ft | 339 kts | 196° |
| 2026-04-21 10:34 | 14.27294 | 121.05537 | 12337 ft | 346 kts | 210° |
| 2026-04-21 10:34 | 14.25248 | 121.04202 | 13072 ft | 351 kts | 214° |
| 2026-04-21 10:34 | 14.23879 | 121.03237 | 13564 ft | 354 kts | 214° |
| 2026-04-21 10:35 | 14.21840 | 121.01781 | 14276 ft | 359 kts | 215° |
| 2026-04-21 10:35 | 14.19775 | 121.00310 | 14973 ft | 363 kts | 214° |
| 2026-04-21 10:35 | 14.16996 | 120.98339 | 15864 ft | 369 kts | 214° |
| 2026-04-21 10:35 | 14.15586 | 120.97342 | 16298 ft | 372 kts | 214° |
| 2026-04-21 10:36 | 14.13438 | 120.95825 | 16927 ft | 377 kts | 214° |
| 2026-04-21 10:36 | 14.11265 | 120.94292 | 17520 ft | 381 kts | 214° |
| 2026-04-21 10:36 | 14.09062 | 120.92739 | 18083 ft | 385 kts | 214° |
| 2026-04-21 10:36 | 14.06801 | 120.91236 | 18611 ft | 389 kts | 208° |
| 2026-04-21 10:37 | 14.04264 | 120.90249 | 19105 ft | 393 kts | 192° |
| 2026-04-21 10:37 | 14.01529 | 120.90136 | 19579 ft | 397 kts | 173° |
| 2026-04-21 10:37 | 13.98800 | 120.90686 | 20038 ft | 401 kts | 167° |
| 2026-04-21 10:37 | 13.96080 | 120.91392 | 20471 ft | 404 kts | 166° |
| 2026-04-21 10:38 | 13.93348 | 120.92119 | 20896 ft | 407 kts | 166° |
| 2026-04-21 10:38 | 13.90592 | 120.92846 | 21315 ft | 411 kts | 166° |
| 2026-04-21 10:38 | 13.87810 | 120.93571 | 21729 ft | 414 kts | 166° |
| 2026-04-21 10:38 | 13.85005 | 120.94297 | 22128 ft | 417 kts | 166° |
| 2026-04-21 10:39 | 13.82182 | 120.95025 | 22519 ft | 420 kts | 166° |
| 2026-04-21 10:39 | 13.79337 | 120.95756 | 22902 ft | 423 kts | 166° |
| 2026-04-21 10:39 | 13.76510 | 120.96481 | 23270 ft | 426 kts | 166° |
| 2026-04-21 10:39 | 13.73626 | 120.97221 | 23632 ft | 429 kts | 166° |
| 2026-04-21 10:40 | 13.70717 | 120.97966 | 23982 ft | 432 kts | 166° |
| 2026-04-21 10:40 | 13.67795 | 120.98715 | 24323 ft | 434 kts | 166° |
| 2026-04-21 10:40 | 13.64852 | 120.99469 | 24656 ft | 437 kts | 166° |
| 2026-04-21 10:40 | 13.61889 | 121.00227 | 24934 ft | 440 kts | 166° |
| 2026-04-21 10:41 | 13.58916 | 121.00988 | 24999 ft | 440 kts | 166° |
| 2026-04-21 10:41 | 13.55943 | 121.01749 | 25000 ft | 441 kts | 166° |
| 2026-04-21 10:41 | 13.52962 | 121.02516 | 24999 ft | 442 kts | 165° |
| 2026-04-21 10:41 | 13.50065 | 121.03579 | 25000 ft | 442 kts | 155° |
| 2026-04-21 10:42 | 13.47364 | 121.05092 | 25001 ft | 443 kts | 149° |
| 2026-04-21 10:42 | 13.44775 | 121.06808 | 25000 ft | 443 kts | 146° |
| 2026-04-21 10:42 | 13.42251 | 121.08618 | 25000 ft | 443 kts | 145° |
| 2026-04-21 10:42 | 13.39775 | 121.10439 | 25000 ft | 443 kts | 144° |
| 2026-04-21 10:43 | 13.37266 | 121.12283 | 25000 ft | 443 kts | 145° |
| 2026-04-21 10:43 | 13.34750 | 121.14109 | 25000 ft | 443 kts | 145° |
| 2026-04-21 10:43 | 13.32222 | 121.15918 | 25000 ft | 443 kts | 146° |
| 2026-04-21 10:43 | 13.29688 | 121.17713 | 25000 ft | 443 kts | 146° |
| 2026-04-21 10:44 | 13.27143 | 121.19502 | 25000 ft | 443 kts | 146° |
| 2026-04-21 10:44 | 13.24602 | 121.21284 | 25000 ft | 443 kts | 146° |
| 2026-04-21 10:44 | 13.22057 | 121.23065 | 25000 ft | 443 kts | 146° |
| 2026-04-21 10:44 | 13.19510 | 121.24848 | 25000 ft | 443 kts | 146° |
| 2026-04-21 10:45 | 13.16964 | 121.26630 | 25000 ft | 443 kts | 146° |
| 2026-04-21 10:45 | 13.14420 | 121.28411 | 25000 ft | 443 kts | 146° |
| 2026-04-21 10:45 | 13.11873 | 121.30195 | 25000 ft | 443 kts | 146° |
| 2026-04-21 10:45 | 13.09322 | 121.31982 | 25000 ft | 443 kts | 146° |
| 2026-04-21 10:46 | 13.06779 | 121.33762 | 25000 ft | 443 kts | 146° |
| 2026-04-21 10:46 | 13.04233 | 121.35544 | 25000 ft | 443 kts | 146° |
| 2026-04-21 10:46 | 13.01685 | 121.37327 | 25000 ft | 443 kts | 146° |
| 2026-04-21 10:46 | 12.99142 | 121.39107 | 25000 ft | 443 kts | 146° |
| 2026-04-21 10:47 | 12.96593 | 121.40890 | 25000 ft | 443 kts | 146° |
| 2026-04-21 10:47 | 12.94053 | 121.42666 | 25000 ft | 443 kts | 146° |
| 2026-04-21 10:47 | 12.91506 | 121.44447 | 25000 ft | 443 kts | 146° |
| 2026-04-21 10:47 | 12.88960 | 121.46227 | 25000 ft | 443 kts | 146° |
| 2026-04-21 10:48 | 12.86413 | 121.48006 | 25000 ft | 443 kts | 146° |
| 2026-04-21 10:48 | 12.83871 | 121.49782 | 25000 ft | 443 kts | 146° |
| 2026-04-21 10:48 | 12.81322 | 121.51563 | 25000 ft | 443 kts | 146° |
| 2026-04-21 10:48 | 12.78768 | 121.53346 | 24839 ft | 447 kts | 146° |
| 2026-04-21 10:49 | 12.76203 | 121.55137 | 23994 ft | 445 kts | 146° |
| 2026-04-21 10:49 | 12.73629 | 121.56934 | 22635 ft | 451 kts | 146° |
| 2026-04-21 10:49 | 12.71057 | 121.58728 | 21486 ft | 453 kts | 146° |
| 2026-04-21 10:49 | 12.68480 | 121.60526 | 20745 ft | 442 kts | 146° |
| 2026-04-21 10:50 | 12.65968 | 121.62278 | 20055 ft | 431 kts | 146° |
| 2026-04-21 10:50 | 12.63519 | 121.63986 | 19375 ft | 421 kts | 146° |
| 2026-04-21 10:50 | 12.61129 | 121.65652 | 18699 ft | 411 kts | 146° |
| 2026-04-21 10:50 | 12.58793 | 121.67281 | 18026 ft | 403 kts | 146° |
| 2026-04-21 10:51 | 12.56496 | 121.68881 | 17383 ft | 396 kts | 146° |
| 2026-04-21 10:51 | 12.54237 | 121.70455 | 16754 ft | 390 kts | 146° |
| 2026-04-21 10:51 | 12.52012 | 121.72005 | 16137 ft | 383 kts | 146° |
| 2026-04-21 10:51 | 12.49820 | 121.73532 | 15510 ft | 378 kts | 146° |
| 2026-04-21 10:52 | 12.47662 | 121.75034 | 14892 ft | 373 kts | 146° |
| 2026-04-21 10:52 | 12.45534 | 121.76515 | 14300 ft | 367 kts | 146° |
| 2026-04-21 10:52 | 12.43436 | 121.77975 | 13704 ft | 362 kts | 146° |
| 2026-04-21 10:52 | 12.41366 | 121.79416 | 13110 ft | 357 kts | 146° |
| 2026-04-21 10:53 | 12.39323 | 121.80838 | 12521 ft | 353 kts | 146° |
| 2026-04-21 10:53 | 12.37232 | 121.82110 | 11931 ft | 347 kts | 158° |
| 2026-04-21 10:53 | 12.34884 | 121.82518 | 11309 ft | 343 kts | 183° |
| 2026-04-21 10:53 | 12.32596 | 121.82120 | 10981 ft | 330 kts | 193° |
| 2026-04-21 10:54 | 12.30430 | 121.81580 | 10911 ft | 309 kts | 194° |
| 2026-04-21 10:54 | 12.28404 | 121.81079 | 10828 ft | 292 kts | 193° |
| 2026-04-21 10:54 | 12.26447 | 121.80614 | 10521 ft | 288 kts | 193° |
| 2026-04-21 10:54 | 12.24490 | 121.80165 | 10078 ft | 288 kts | 193° |
| 2026-04-21 10:55 | 12.22535 | 121.79727 | 9690 ft | 286 kts | 192° |
| 2026-04-21 10:55 | 12.20601 | 121.79301 | 9314 ft | 283 kts | 192° |
| 2026-04-21 10:55 | 12.18684 | 121.78881 | 8961 ft | 281 kts | 192° |
| 2026-04-21 10:55 | 12.16752 | 121.78460 | 8697 ft | 285 kts | 192° |
| 2026-04-21 10:56 | 12.14830 | 121.78043 | 8334 ft | 281 kts | 192° |
| 2026-04-21 10:56 | 12.12917 | 121.77628 | 7952 ft | 279 kts | 192° |
| 2026-04-21 10:56 | 12.11030 | 121.77219 | 7583 ft | 276 kts | 192° |
| 2026-04-21 10:56 | 12.09168 | 121.76815 | 7221 ft | 273 kts | 192° |
| 2026-04-21 10:57 | 12.07320 | 121.76415 | 6861 ft | 270 kts | 192° |
| 2026-04-21 10:57 | 12.05493 | 121.76020 | 6505 ft | 267 kts | 192° |
| 2026-04-21 10:57 | 12.03678 | 121.75627 | 6151 ft | 265 kts | 192° |
| 2026-04-21 10:57 | 12.01887 | 121.75240 | 5803 ft | 262 kts | 192° |
| 2026-04-21 10:58 | 12.00135 | 121.74860 | 5462 ft | 260 kts | 192° |
| 2026-04-21 10:58 | 11.98351 | 121.74475 | 5116 ft | 257 kts | 192° |
| 2026-04-21 10:58 | 11.96632 | 121.74103 | 4781 ft | 255 kts | 192° |
| 2026-04-21 10:58 | 11.94904 | 121.73729 | 4446 ft | 253 kts | 192° |
| 2026-04-21 10:59 | 11.93185 | 121.73358 | 4113 ft | 252 kts | 192° |
| 2026-04-21 10:59 | 11.91412 | 121.73175 | 3947 ft | 263 kts | 176° |
| 2026-04-21 10:59 | 11.89634 | 121.73665 | 3934 ft | 268 kts | 157° |
| 2026-04-21 10:59 | 11.87955 | 121.74484 | 3934 ft | 265 kts | 153° |
| 2026-04-21 11:00 | 11.86380 | 121.75325 | 3902 ft | 246 kts | 151° |
| 2026-04-21 11:00 | 11.85076 | 121.76378 | 3771 ft | 235 kts | 130° |
| 2026-04-21 11:00 | 11.84391 | 121.77829 | 3639 ft | 224 kts | 101° |
| 2026-04-21 11:00 | 11.84466 | 121.79369 | 3508 ft | 215 kts | 73° |
| 2026-04-21 11:01 | 11.85036 | 121.80769 | 3252 ft | 213 kts | 64° |
| 2026-04-21 11:01 | 11.85721 | 121.82114 | 2946 ft | 214 kts | 62° |
| 2026-04-21 11:01 | 11.86420 | 121.83457 | 2653 ft | 214 kts | 62° |
| 2026-04-21 11:02 | 11.87793 | 121.86132 | 2133 ft | 207 kts | 63° |
| 2026-04-21 11:02 | 11.88440 | 121.87406 | 1860 ft | 199 kts | 63° |
| 2026-04-21 11:02 | 11.89059 | 121.88632 | 1569 ft | 188 kts | 63° |
| 2026-04-21 11:02 | 11.89626 | 121.89757 | 1375 ft | 166 kts | 63° |
| 2026-04-21 11:03 | 11.90122 | 121.90747 | 1155 ft | 150 kts | 63° |
| 2026-04-21 11:03 | 11.90594 | 121.91661 | 888 ft | 141 kts | 62° |
| 2026-04-21 11:03 | 11.91030 | 121.92530 | 608 ft | 135 kts | 65° |
| 2026-04-21 11:03 | 11.91429 | 121.93362 | 408 ft | 127 kts | 63° |
| 2026-04-21 11:04 | 11.91831 | 121.94148 | 276 ft | 126 kts | 64° |
| 2026-04-21 11:04 | 11.92230 | 121.94962 | 82 ft | 126 kts | 62° |
| 2026-04-21 11:04 | 11.92617 | 121.95728 | 30 ft | 106 kts | 62° |
| 2026-04-21 11:04 | 11.92831 | 121.96146 | 28 ft | 25 kts | 59° |
| 2026-04-21 11:05 | 11.92876 | 121.96200 | 28 ft | 1 kts | 109° |
| 2026-04-21 11:05 | 11.92865 | 121.96203 | 28 ft | 3 kts | 186° |
| 2026-04-21 11:05 | 11.92850 | 121.96188 | 28 ft | 5 kts | 236° |
| 2026-04-21 11:05 | 11.92822 | 121.96134 | 29 ft | 10 kts | 231° |
| 2026-04-21 11:06 | 11.92804 | 121.96113 | 29 ft | 1 kts | 287° |
| 2026-04-21 11:06 | 11.92812 | 121.96113 | 29 ft | 2 kts | 14° |
| 2026-04-21 11:06 | 11.92833 | 121.96150 | 28 ft | 14 kts | 62° |
| 2026-04-21 11:06 | 11.92899 | 121.96280 | 28 ft | 25 kts | 64° |
| 2026-04-21 11:07 | 11.92976 | 121.96440 | 27 ft | 8 kts | 77° |
| 2026-04-21 11:07 | 11.92958 | 121.96459 | 27 ft | 6 kts | 146° |
| 2026-04-21 11:07 | 11.92912 | 121.96485 | 29 ft | 10 kts | 152° |
| 2026-04-21 11:07 | 11.92840 | 121.96521 | 29 ft | 12 kts | 149° |
| 2026-04-21 11:08 | 11.92796 | 121.96515 | 29 ft | 8 kts | 227° |
| 2026-04-21 11:08 | 11.92767 | 121.96461 | 29 ft | 1 kts | 245° |
| 2026-04-21 11:08 | 11.92754 | 121.96433 | 29 ft | 8 kts | 244° |
| 2026-04-21 11:08 | 11.92720 | 121.96365 | 29 ft | 10 kts | 242° |
| 2026-04-21 11:09 | 11.92695 | 121.96360 | 29 ft | 5 kts | 154° |
| 2026-04-21 11:09 | 11.92673 | 121.96371 | 29 ft | 0 kts | 154° |